Terminal Aerodrome Forecast
Issued by NWS

Home | Current Version | Previous Version | Text Only | Print | Product List | Glossary On
Versions: 1 2 3 4 5 6 7 8 9 10 11 12 13 14 15 16 17 18 19 20
236
FTUS42 KFFC 211128
TAFPDK
TAF
KPDK 211128Z 2112/2212 10003KT P6SM SCT050 BKN250
     FM211400 12006KT P6SM BKN060
     FM211800 12008KT P6SM VCSH SCT015 BKN035
     FM212100 12010KT 5SM -SHRA BKN025
     FM220000 10005KT 4SM -RA BR BKN015
     FM220300 10004KT 3SM -RA BR OVC007
     FM220600 10003KT 3SM -RA BR OVC003=

USA.gov is the U.S. government's official web portal to all federal, state and local government web resources and services.